Time;durP1;ratioP1;P1;durP2;ratioP2;P2;SDS_P1;SDS_P2;PMS_P1;PMS_P2;Temp;Humidity;BMP_temperature;BMP_pressure;BME280_temperature;BME280_humidity;BME280_pressure;Samples;Min_cycle;Max_cycle;Signal;HPM_P1;HPM_P2
2021/06/09 00:02:08;;;;;;;19.55;16.65;;;;;;;17.89;79.84;99367.47;3616578;39;20083;-66
2021/06/09 00:04:36;;;;;;;26.50;20.13;;;;;;;17.85;80.81;99368.16;3614542;39;20055;-66
2021/06/09 00:07:04;;;;;;;22.70;18.25;;;;;;;17.79;81.02;99365.31;3604050;39;20055;-66
2021/06/09 00:09:31;;;;;;;23.65;18.10;;;;;;;17.85;81.27;99362.81;3603308;39;20040;-66
2021/06/09 00:11:59;;;;;;;23.65;18.15;;;;;;;17.93;80.75;99363.31;3612132;39;20055;-65
2021/06/09 00:14:26;;;;;;;20.25;17.90;;;;;;;17.96;80.72;99370.03;3611416;39;20103;-66
2021/06/09 00:16:54;;;;;;;22.02;18.67;;;;;;;17.96;80.64;99376.25;3610701;39;20087;-67
2021/06/09 00:19:24;;;;;;;22.98;20.58;;;;;;;17.96;81.17;99370.03;3610658;39;20051;-65
2021/06/09 00:21:52;;;;;;;24.95;22.20;;;;;;;17.91;81.41;99380.63;3610006;39;20039;-67
2021/06/09 00:24:22;;;;;;;21.88;19.65;;;;;;;17.86;81.05;99373.28;3610188;39;20087;-66
2021/06/09 00:26:51;;;;;;;20.52;17.30;;;;;;;17.85;81.08;99374.31;3610225;39;20313;-67
2021/06/09 00:29:19;;;;;;;17.75;16.00;;;;;;;17.88;80.78;99376.56;3600628;39;20048;-67
2021/06/09 00:31:46;;;;;;;18.15;16.55;;;;;;;17.89;80.08;99378.19;3610477;39;20089;-66
2021/06/09 00:34:15;;;;;;;18.50;15.68;;;;;;;17.84;79.70;99383.41;3600647;39;20365;-67
2021/06/09 00:36:42;;;;;;;17.02;15.30;;;;;;;17.85;79.58;99386.88;3610311;39;20047;-68
2021/06/09 00:39:10;;;;;;;17.67;15.85;;;;;;;17.90;79.39;99387.00;3610073;39;20052;-67
2021/06/09 00:41:38;;;;;;;18.38;16.35;;;;;;;17.97;79.40;99383.22;3610112;39;20032;-67
2021/06/09 00:44:06;;;;;;;18.02;16.20;;;;;;;18.01;79.42;99384.38;3609926;39;20051;-66
2021/06/09 00:46:35;;;;;;;21.58;17.65;;;;;;;17.97;79.42;99387.75;3600405;39;20064;-67
2021/06/09 00:49:04;;;;;;;23.67;18.70;;;;;;;17.95;79.76;99387.16;3609786;39;20132;-66
2021/06/09 00:51:31;;;;;;;23.55;18.38;;;;;;;17.97;79.95;99390.44;3610152;39;20091;-67
2021/06/09 00:54:03;;;;;;;32.00;20.70;;;;;;;17.96;79.98;99391.44;3600705;39;20355;-68
2021/06/09 00:56:32;;;;;;;34.22;20.95;;;;;;;17.95;80.35;99387.97;3610148;39;20388;-65
2021/06/09 00:59:01;;;;;;;32.55;21.98;;;;;;;17.97;80.63;99388.56;3609699;39;20083;-66
2021/06/09 01:01:30;;;;;;;26.17;19.90;;;;;;;17.98;80.44;99387.50;3600194;39;20047;-66
2021/06/09 01:03:58;;;;;;;32.83;21.17;;;;;;;17.99;80.87;99393.69;3609896;39;20136;-66
2021/06/09 01:06:25;;;;;;;42.13;21.85;;;;;;;17.95;80.82;99393.31;3600354;39;20079;-65
2021/06/09 01:08:53;;;;;;;25.90;20.80;;;;;;;17.89;80.96;99398.75;3609154;39;20091;-67
2021/06/09 01:11:22;;;;;;;27.92;20.08;;;;;;;17.93;80.30;99386.56;3609484;39;20036;-66
2021/06/09 01:13:50;;;;;;;38.92;20.95;;;;;;;17.93;80.50;99386.56;3609416;39;20047;-66
2021/06/09 01:16:19;;;;;;;30.00;21.98;;;;;;;17.90;80.45;99387.81;3609584;39;20360;-67
2021/06/09 01:18:47;;;;;;;22.67;18.55;;;;;;;17.90;80.45;99381.66;3609190;39;20054;-67
2021/06/09 01:21:15;;;;;;;23.60;19.00;;;;;;;17.94;80.55;99382.84;3609580;39;20044;-66
2021/06/09 01:23:44;;;;;;;28.52;19.58;;;;;;;17.90;80.33;99387.00;3600186;39;20075;-66
2021/06/09 01:26:11;;;;;;;29.42;20.77;;;;;;;17.80;80.25;99384.88;3609660;39;20055;-66
2021/06/09 01:28:41;;;;;;;22.65;19.23;;;;;;;17.74;80.43;99386.59;3609676;39;20081;-67
2021/06/09 01:31:09;;;;;;;23.27;20.38;;;;;;;17.66;79.81;99386.84;3609771;39;20098;-67
2021/06/09 01:33:37;;;;;;;22.20;19.90;;;;;;;17.57;80.34;99382.88;3600158;39;20063;-66
2021/06/09 01:36:05;;;;;;;19.27;17.00;;;;;;;17.54;80.20;99381.44;3609350;39;20050;-67
2021/06/09 01:38:32;;;;;;;19.05;17.08;;;;;;;17.63;79.90;99387.28;3609202;39;20054;-67
2021/06/09 01:41:01;;;;;;;18.10;15.77;;;;;;;17.64;79.56;99388.97;3600387;39;20035;-65
2021/06/09 01:43:30;;;;;;;20.75;18.58;;;;;;;17.61;79.02;99384.06;3609705;39;20063;-67
2021/06/09 01:45:58;;;;;;;22.33;17.30;;;;;;;17.53;79.08;99381.69;3609778;39;20020;-67
2021/06/09 01:48:25;;;;;;;17.15;15.45;;;;;;;17.50;79.52;99384.78;3612355;39;20343;-66
2021/06/09 01:50:53;;;;;;;17.80;15.00;;;;;;;17.53;78.98;99385.16;3613771;39;20027;-67
2021/06/09 01:53:20;;;;;;;17.33;14.43;;;;;;;17.62;78.50;99384.88;3613613;39;20529;-67
2021/06/09 01:55:48;;;;;;;18.00;14.85;;;;;;;17.60;78.04;99389.63;3611038;39;20023;-67
2021/06/09 01:58:17;;;;;;;16.40;14.90;;;;;;;17.48;78.47;99377.00;3609656;39;20044;-66
2021/06/09 02:00:46;;;;;;;15.95;14.45;;;;;;;17.37;78.76;99374.25;3609576;39;20030;-68
2021/06/09 02:03:15;;;;;;;17.38;14.80;;;;;;;17.35;78.94;99382.50;3609470;39;20047;-66
2021/06/09 02:05:43;;;;;;;17.73;15.93;;;;;;;17.29;79.13;99378.03;3609762;39;20043;-68
2021/06/09 02:08:12;;;;;;;18.13;16.30;;;;;;;17.25;79.60;99376.84;3611670;39;20047;-67
2021/06/09 02:10:41;;;;;;;18.77;16.77;;;;;;;17.27;79.83;99372.94;3612999;39;20324;-66
2021/06/09 02:13:12;;;;;;;18.80;16.85;;;;;;;17.27;79.75;99374.78;3612566;39;20058;-66
2021/06/09 02:15:41;;;;;;;18.52;16.42;;;;;;;17.25;80.20;99372.31;3610738;39;20074;-66
2021/06/09 02:18:10;;;;;;;17.75;15.70;;;;;;;17.29;80.09;99372.69;3609411;39;20051;-67
2021/06/09 02:20:39;;;;;;;17.02;15.35;;;;;;;17.31;79.75;99363.44;3609230;39;20032;-67
2021/06/09 02:23:09;;;;;;;17.90;16.20;;;;;;;17.34;80.00;99372.84;3600477;39;20355;-65
2021/06/09 02:25:40;;;;;;;20.20;16.77;;;;;;;17.28;79.69;99374.56;3600852;39;20039;-67
2021/06/09 02:28:07;;;;;;;17.17;15.38;;;;;;;17.16;80.06;99376.31;3609318;39;20050;-67
2021/06/09 02:30:35;;;;;;;17.17;15.55;;;;;;;17.11;80.21;99373.50;3609602;39;20060;-66
2021/06/09 02:33:04;;;;;;;17.05;15.30;;;;;;;17.08;80.17;99379.28;3623958;22;20078;-60
2021/06/09 02:35:35;;;;;;;17.27;15.65;;;;;;;17.13;80.18;99382.09;3588670;40;20056;-61
2021/06/09 02:38:04;;;;;;;18.45;16.65;;;;;;;17.06;79.97;99376.84;3588479;40;20073;-60
2021/06/09 02:40:32;;;;;;;16.98;15.38;;;;;;;17.03;80.12;99389.81;3588808;40;20420;-60
2021/06/09 02:43:00;;;;;;;17.70;15.88;;;;;;;16.95;80.33;99382.09;3587831;40;20350;-61
2021/06/09 02:45:27;;;;;;;15.65;14.15;;;;;;;16.87;80.39;99377.84;3588555;40;20048;-61
2021/06/09 02:47:56;;;;;;;16.35;14.75;;;;;;;16.81;80.48;99382.19;3588432;40;20085;-60
2021/06/09 02:50:25;;;;;;;15.95;14.35;;;;;;;16.79;80.15;99376.25;3589013;40;20052;-61
2021/06/09 02:53:02;;;;;;;15.82;14.43;;;;;;;16.83;80.36;99382.81;3588787;40;20088;-60
2021/06/09 02:55:43;;;;;;;15.32;13.93;;;;;;;16.81;80.65;99374.19;3588754;40;20096;-62
2021/06/09 02:58:14;;;;;;;13.77;12.32;;;;;;;16.79;80.43;99378.94;3588798;40;20051;-62
2021/06/09 03:00:56;;;;;;;13.90;12.57;;;;;;;16.80;80.12;99382.41;3588611;40;20087;-62
2021/06/09 03:03:35;;;;;;;13.77;12.55;;;;;;;16.79;80.47;99378.13;3588728;40;20415;-61
2021/06/09 03:06:11;;;;;;;14.40;13.10;;;;;;;16.86;80.20;99373.53;3587752;40;20051;-62
2021/06/09 03:08:43;;;;;;;14.27;12.98;;;;;;;16.84;79.78;99378.28;3588567;40;20070;-62
2021/06/09 03:11:21;;;;;;;13.13;11.93;;;;;;;16.84;79.78;99373.75;3588590;40;20080;-62
2021/06/09 03:13:58;;;;;;;15.63;14.05;;;;;;;16.81;79.97;99374.19;3588682;40;20406;-61
2021/06/09 03:16:28;;;;;;;15.02;13.30;;;;;;;16.73;79.68;99379.78;3588730;40;20080;-61
2021/06/09 03:19:03;;;;;;;15.40;13.95;;;;;;;16.66;80.17;99367.53;3587304;40;20133;-61
2021/06/09 03:21:39;;;;;;;15.23;13.82;;;;;;;16.60;80.29;99383.34;3588868;40;20048;-61
2021/06/09 03:24:13;;;;;;;15.50;13.75;;;;;;;16.58;80.37;99382.78;3588618;40;20044;-61
2021/06/09 03:26:48;;;;;;;14.60;13.27;;;;;;;16.59;79.69;99391.59;3588508;40;20132;-61
2021/06/09 03:29:25;;;;;;;15.18;13.68;;;;;;;16.54;79.63;99386.91;3588338;40;20048;-61
2021/06/09 03:31:56;;;;;;;24.63;22.13;;;;;;;16.54;79.53;99384.25;3588375;40;20044;-61
2021/06/09 03:34:27;;;;;;;21.80;19.50;;;;;;;16.50;79.56;99374.22;3588392;40;20052;-61
2021/06/09 03:36:59;;;;;;;19.00;16.83;;;;;;;16.36;79.33;99378.81;3588573;40;20056;-61
2021/06/09 03:39:29;;;;;;;18.83;17.00;;;;;;;16.26;79.94;99376.63;3588329;40;20052;-61
2021/06/09 03:41:59;;;;;;;20.08;17.88;;;;;;;16.22;80.29;99370.09;3588344;40;20048;-61
2021/06/09 03:44:31;;;;;;;18.73;16.83;;;;;;;16.25;80.32;99379.53;3587446;40;20051;-60
2021/06/09 03:46:59;;;;;;;15.02;13.52;;;;;;;16.40;80.56;99374.69;3588292;40;20075;-61
2021/06/09 03:50:21;;;;;;;21.65;19.52;;;;;;;16.49;79.64;99377.91;3588641;40;20113;-61
2021/06/09 03:52:51;;;;;;;17.58;15.55;;;;;;;16.43;79.64;99384.13;3585359;40;20049;-61
2021/06/09 03:55:22;;;;;;;18.05;14.75;;;;;;;16.43;79.73;99379.59;3589694;40;20084;-61
2021/06/09 03:57:52;;;;;;;16.48;14.77;;;;;;;16.41;79.44;99376.34;3589989;40;20059;-62
2021/06/09 04:00:22;;;;;;;17.48;15.68;;;;;;;16.42;79.72;99377.97;3590052;40;20051;-62
2021/06/09 04:02:51;;;;;;;15.02;13.63;;;;;;;16.41;79.60;99388.84;3588825;40;20049;-62
2021/06/09 04:05:19;;;;;;;15.73;13.73;;;;;;;16.35;79.61;99382.53;3588529;40;20080;-62
2021/06/09 04:07:48;;;;;;;16.58;14.90;;;;;;;16.31;79.33;99375.97;3587913;40;20048;-62
2021/06/09 04:10:20;;;;;;;15.57;14.18;;;;;;;16.42;79.37;99385.16;3588179;40;20390;-62
2021/06/09 04:12:48;;;;;;;14.75;13.38;;;;;;;16.46;78.87;99381.03;3588234;40;20052;-61
2021/06/09 04:15:17;;;;;;;15.40;13.90;;;;;;;16.52;78.88;99382.81;3588110;40;20048;-61
2021/06/09 04:17:48;;;;;;;16.23;14.57;;;;;;;16.53;78.84;99381.78;3587453;40;20036;-60
2021/06/09 04:20:21;;;;;;;14.70;13.35;;;;;;;16.57;78.84;99385.63;3587464;40;20025;-61
2021/06/09 04:22:49;;;;;;;15.10;13.60;;;;;;;16.54;79.04;99386.09;3590123;40;20075;-60
2021/06/09 04:25:19;;;;;;;14.57;13.13;;;;;;;16.48;78.59;99386.94;3589460;40;20330;-61
2021/06/09 04:27:47;;;;;;;13.38;12.13;;;;;;;16.48;78.39;99386.94;3588751;40;20052;-61
2021/06/09 04:30:16;;;;;;;13.18;11.88;;;;;;;16.55;78.77;99382.38;3588457;40;20041;-61
2021/06/09 04:32:50;;;;;;;12.35;11.15;;;;;;;16.62;78.09;99379.69;3588586;40;20051;-61
2021/06/09 04:35:19;;;;;;;12.88;11.77;;;;;;;16.72;78.19;99394.16;3588160;40;20198;-61
2021/06/09 04:37:46;;;;;;;12.35;11.25;;;;;;;16.77;77.58;99383.66;3587998;40;20036;-60
2021/06/09 04:40:18;;;;;;;12.32;11.15;;;;;;;16.86;77.42;99381.56;3587900;40;20052;-60
2021/06/09 04:42:48;;;;;;;11.93;10.85;;;;;;;16.83;77.40;99390.81;3588047;40;20029;-61
2021/06/09 04:45:16;;;;;;;12.27;11.10;;;;;;;16.86;77.28;99384.22;3588740;40;20060;-60
2021/06/09 04:47:44;;;;;;;13.00;11.70;;;;;;;16.86;77.84;99388.72;3589352;40;20036;-60
2021/06/09 04:50:16;;;;;;;11.80;10.70;;;;;;;16.91;77.43;99389.72;3589546;40;20052;-61
2021/06/09 04:52:43;;;;;;;13.02;11.93;;;;;;;16.95;77.78;99395.44;3588460;40;20080;-61
2021/06/09 04:55:11;;;;;;;13.68;12.30;;;;;;;16.99;77.33;99394.78;3589765;40;20052;-62
2021/06/09 04:57:41;;;;;;;14.20;12.93;;;;;;;17.08;77.53;99389.97;3588651;40;20106;-61
2021/06/09 05:00:12;;;;;;;13.98;12.68;;;;;;;17.17;77.00;99398.50;3589292;40;20124;-60
2021/06/09 05:02:40;;;;;;;13.77;12.57;;;;;;;17.20;77.07;99398.88;3589250;40;20088;-60
2021/06/09 05:05:09;;;;;;;14.20;12.93;;;;;;;17.20;76.95;99393.53;3589194;40;20040;-61
2021/06/09 05:07:36;;;;;;;16.70;15.25;;;;;;;17.04;77.16;99391.44;3588313;40;20088;-61
2021/06/09 05:10:04;;;;;;;14.48;13.02;;;;;;;17.03;76.90;99390.63;3589646;40;20052;-61
2021/06/09 05:12:36;;;;;;;15.60;14.10;;;;;;;17.16;77.21;99386.19;3589110;40;20117;-61
2021/06/09 05:15:07;;;;;;;15.55;14.05;;;;;;;17.21;76.88;99384.47;3589334;40;20051;-62
2021/06/09 05:17:38;;;;;;;16.48;14.93;;;;;;;17.28;76.59;99389.78;3588965;40;20094;-61
2021/06/09 05:20:08;;;;;;;15.80;14.05;;;;;;;17.27;76.37;99388.97;3589368;40;20077;-61
2021/06/09 05:22:41;;;;;;;15.68;14.18;;;;;;;17.36;76.54;99384.13;3589099;40;20394;-61
2021/06/09 05:25:09;;;;;;;17.52;14.70;;;;;;;17.31;76.61;99389.34;3589580;40;20052;-62
2021/06/09 05:27:39;;;;;;;17.25;15.52;;;;;;;17.29;76.54;99391.41;3587876;40;20060;-61
2021/06/09 05:30:08;;;;;;;16.75;15.15;;;;;;;17.37;76.39;99391.09;3589141;40;20040;-62
2021/06/09 05:32:37;;;;;;;20.38;18.17;;;;;;;17.42;75.88;99382.41;3587964;40;20486;-62
2021/06/09 05:35:07;;;;;;;20.67;18.10;;;;;;;17.50;76.00;99387.47;3589104;40;20044;-62
2021/06/09 05:37:35;;;;;;;18.98;17.08;;;;;;;17.64;75.59;99390.81;3588297;40;20057;-61
2021/06/09 05:40:08;;;;;;;21.10;19.10;;;;;;;17.66;75.39;99388.72;3588041;40;20040;-62
2021/06/09 05:42:35;;;;;;;22.42;20.02;;;;;;;17.69;74.70;99386.41;3587953;40;20048;-60
2021/06/09 05:45:04;;;;;;;19.65;17.65;;;;;;;17.79;74.35;99380.56;3589546;40;20052;-60
2021/06/09 05:47:39;;;;;;;18.45;16.75;;;;;;;17.89;74.11;99390.75;3588846;40;20048;-59
2021/06/09 05:50:09;;;;;;;19.05;17.17;;;;;;;18.01;73.48;99388.94;3589347;40;20052;-60
2021/06/09 05:52:36;;;;;;;19.85;17.70;;;;;;;18.08;72.95;99386.97;3589106;40;20063;-59
2021/06/09 05:55:05;;;;;;;18.45;16.75;;;;;;;18.10;72.41;99382.22;3588881;40;20046;-61
2021/06/09 05:57:33;;;;;;;18.98;16.98;;;;;;;18.10;71.93;99379.53;3588895;40;20051;-62
2021/06/09 06:00:00;;;;;;;22.30;19.92;;;;;;;18.19;71.68;99386.19;3589052;40;20400;-60
2021/06/09 06:02:29;;;;;;;18.13;16.33;;;;;;;18.22;71.24;99387.59;3588290;40;20125;-60
2021/06/09 06:04:58;;;;;;;19.15;17.15;;;;;;;18.23;70.96;99392.72;3589157;40;20056;-61
2021/06/09 06:07:27;;;;;;;19.83;17.80;;;;;;;18.16;70.55;99385.81;3589158;40;20052;-60
2021/06/09 06:09:54;;;;;;;18.55;16.50;;;;;;;18.10;70.40;99382.22;3588944;40;20079;-61
2021/06/09 06:12:25;;;;;;;18.25;16.33;;;;;;;18.16;70.75;99383.97;3589036;40;20049;-61
2021/06/09 06:14:53;;;;;;;18.75;16.95;;;;;;;18.22;70.95;99385.75;3588965;40;20075;-61
2021/06/09 06:17:21;;;;;;;17.63;16.02;;;;;;;18.30;70.92;99376.56;3588886;40;20060;-61
2021/06/09 06:19:49;;;;;;;18.70;16.77;;;;;;;18.45;70.60;99381.47;3589472;40;20069;-61
2021/06/09 06:22:19;;;;;;;18.70;16.85;;;;;;;18.46;69.96;99378.59;3590125;40;20061;-61
2021/06/09 06:24:50;;;;;;;17.85;15.38;;;;;;;18.48;69.79;99378.34;3589123;40;20109;-61
2021/06/09 06:27:19;;;;;;;18.80;16.58;;;;;;;18.52;69.54;99380.34;3588945;40;20051;-60
2021/06/09 06:29:47;;;;;;;20.80;16.30;;;;;;;18.55;69.43;99381.75;3588239;40;20076;-63
2021/06/09 06:32:15;;;;;;;17.40;15.80;;;;;;;18.54;69.73;99374.78;3589062;40;20044;-62
2021/06/09 06:34:47;;;;;;;18.15;15.95;;;;;;;18.56;69.37;99378.03;3588910;40;20044;-63
2021/06/09 06:37:15;;;;;;;17.67;15.48;;;;;;;18.62;69.13;99376.31;3588794;40;20048;-61
2021/06/09 06:39:43;;;;;;;17.33;15.73;;;;;;;18.66;69.31;99375.59;3588728;40;20480;-62
2021/06/09 06:42:11;;;;;;;16.15;14.65;;;;;;;18.74;69.15;99372.63;3588800;40;20081;-63
2021/06/09 06:44:40;;;;;;;18.02;16.15;;;;;;;18.82;69.17;99376.81;3588772;40;20112;-62
2021/06/09 06:47:09;;;;;;;16.23;14.65;;;;;;;18.88;69.34;99375.88;3588503;40;20356;-62
2021/06/09 06:49:37;;;;;;;23.05;18.05;;;;;;;19.01;68.51;99381.00;3589086;40;20114;-60
2021/06/09 06:52:05;;;;;;;18.15;16.00;;;;;;;19.07;68.86;99386.50;3588815;40;20084;-60
2021/06/09 06:54:33;;;;;;;16.80;15.10;;;;;;;19.16;69.30;99382.41;3587759;40;20130;-62
2021/06/09 06:57:02;;;;;;;17.05;15.43;;;;;;;19.14;68.47;99385.28;3588543;40;20080;-62
2021/06/09 06:59:34;;;;;;;16.58;14.75;;;;;;;19.24;68.77;99385.53;3588787;40;20434;-60
2021/06/09 07:02:05;;;;;;;15.15;13.55;;;;;;;19.32;67.99;99380.88;3588564;40;20040;-60
2021/06/09 07:04:33;;;;;;;16.38;14.80;;;;;;;19.42;68.66;99376.53;3588640;40;20428;-60
2021/06/09 07:07:00;;;;;;;17.00;15.05;;;;;;;19.49;68.04;99377.22;3588130;40;20067;-62
2021/06/09 07:09:28;;;;;;;15.52;14.02;;;;;;;19.51;67.24;99377.81;3588405;40;20048;-62
2021/06/09 07:11:56;;;;;;;16.50;14.10;;;;;;;19.62;66.94;99378.84;3588678;40;20052;-61
2021/06/09 07:14:29;;;;;;;15.27;13.68;;;;;;;19.67;66.47;99378.94;3588715;40;20056;-61
2021/06/09 07:16:57;;;;;;;16.15;14.45;;;;;;;19.73;65.56;99386.03;3590599;40;20058;-61
2021/06/09 07:19:25;;;;;;;16.80;15.30;;;;;;;19.84;65.60;99386.22;3590517;40;20040;-62
2021/06/09 07:22:13;;;;;;;16.23;14.60;;;;;;;19.93;66.44;99390.19;3589024;40;20297;-62
2021/06/09 07:24:40;;;;;;;15.63;14.23;;;;;;;20.00;66.51;99397.03;3589071;40;20059;-62
2021/06/09 07:27:08;;;;;;;16.30;14.40;;;;;;;20.06;66.66;99384.53;3588693;40;20285;-62
2021/06/09 07:29:38;;;;;;;16.00;14.63;;;;;;;20.08;66.93;99392.31;3588603;40;20434;-62
2021/06/09 07:32:08;;;;;;;15.15;13.75;;;;;;;20.21;66.66;99389.38;3588464;40;20377;-62
2021/06/09 07:34:36;;;;;;;15.25;13.75;;;;;;;20.33;66.62;99392.81;3588556;40;20124;-62
2021/06/09 07:37:10;;;;;;;16.58;14.77;;;;;;;20.40;65.94;99389.94;3588236;40;20096;-62
2021/06/09 07:39:41;;;;;;;16.40;14.73;;;;;;;20.42;65.92;99396.72;3588378;40;20037;-62
2021/06/09 07:42:11;;;;;;;17.45;15.60;;;;;;;20.48;65.81;99392.25;3588302;40;20336;-61
2021/06/09 07:44:44;;;;;;;16.35;14.65;;;;;;;20.60;65.17;99394.88;3588387;40;20051;-61
2021/06/09 07:47:13;;;;;;;14.55;13.05;;;;;;;20.64;65.24;99398.72;3588134;40;20072;-61
2021/06/09 07:49:45;;;;;;;14.63;12.65;;;;;;;20.77;64.76;99399.19;3588371;40;20044;-62
2021/06/09 07:52:14;;;;;;;14.80;13.40;;;;;;;20.83;63.75;99399.28;3587539;40;20080;-61
2021/06/09 07:54:43;;;;;;;12.95;11.85;;;;;;;20.91;62.59;99390.81;3588088;40;20105;-61
2021/06/09 07:57:12;;;;;;;13.75;12.45;;;;;;;20.95;61.94;99394.66;3587919;40;20048;-61
2021/06/09 07:59:43;;;;;;;12.07;10.93;;;;;;;21.03;62.40;99394.22;3588054;40;20333;-63
2021/06/09 08:02:12;;;;;;;12.32;11.30;;;;;;;21.08;62.51;99396.19;3587960;40;20357;-61
2021/06/09 08:04:39;;;;;;;11.90;10.75;;;;;;;21.10;62.69;99388.66;3588267;40;20040;-63
2021/06/09 08:07:07;;;;;;;11.45;10.32;;;;;;;21.20;62.51;99392.31;3588087;40;20057;-62
2021/06/09 08:09:34;;;;;;;10.57;9.63;;;;;;;21.31;61.98;99392.44;3588295;40;20056;-62
2021/06/09 08:12:03;;;;;;;10.10;9.13;;;;;;;21.37;61.76;99388.81;3586995;40;20055;-62
2021/06/09 08:14:31;;;;;;;10.45;9.55;;;;;;;21.36;61.70;99388.00;3587366;40;20058;-63
2021/06/09 08:17:01;;;;;;;11.10;9.82;;;;;;;21.46;61.03;99390.00;3588023;40;20053;-63
2021/06/09 08:19:29;;;;;;;9.32;8.52;;;;;;;21.56;61.26;99384.75;3589236;40;20052;-62
2021/06/09 08:21:56;;;;;;;9.80;8.90;;;;;;;21.63;60.43;99384.56;3589650;40;20053;-62
2021/06/09 08:24:23;;;;;;;10.45;9.55;;;;;;;21.64;59.91;99375.44;3590060;40;20048;-62
2021/06/09 08:26:53;;;;;;;9.25;8.35;;;;;;;21.77;59.36;99380.44;3589852;40;20088;-62
2021/06/09 08:29:21;;;;;;;9.82;8.88;;;;;;;21.83;59.42;99376.72;3588951;40;20049;-62
2021/06/09 08:31:48;;;;;;;8.55;7.57;;;;;;;21.85;58.64;99379.19;3627774;22;20358;-65
2021/06/09 08:34:17;;;;;;;8.57;7.88;;;;;;;21.94;58.55;99373.09;3590912;40;20040;-66
2021/06/09 08:36:44;;;;;;;7.72;7.03;;;;;;;22.03;58.52;99376.13;3591005;40;20416;-66
2021/06/09 08:39:12;;;;;;;9.02;6.38;;;;;;;22.21;57.74;99381.22;3599989;40;20076;-65
2021/06/09 08:41:40;;;;;;;7.68;6.97;;;;;;;22.25;57.04;99374.25;3600144;40;20043;-65
2021/06/09 08:44:08;;;;;;;8.15;7.35;;;;;;;22.37;56.84;99371.41;3600335;40;20048;-66
2021/06/09 08:46:37;;;;;;;8.32;7.63;;;;;;;22.46;56.67;99369.84;3600761;40;20044;-66
2021/06/09 08:49:05;;;;;;;8.68;7.78;;;;;;;22.50;55.99;99373.66;3599606;40;20051;-65
2021/06/09 08:51:35;;;;;;;7.82;7.10;;;;;;;22.57;55.85;99375.31;3599927;40;20099;-65
2021/06/09 08:54:05;;;;;;;7.90;7.20;;;;;;;22.64;55.55;99373.22;3599906;40;20025;-65
2021/06/09 08:56:32;;;;;;;10.18;6.70;;;;;;;22.84;55.64;99372.56;3600053;40;20040;-66
2021/06/09 08:59:00;;;;;;;9.52;7.95;;;;;;;22.92;54.92;99372.91;3592045;40;20081;-66
2021/06/09 09:01:29;;;;;;;8.85;7.00;;;;;;;23.02;54.69;99371.34;3602177;40;20053;-66
2021/06/09 09:04:02;;;;;;;8.43;7.70;;;;;;;23.11;53.54;99373.31;3602089;40;20120;-66
2021/06/09 09:06:30;;;;;;;7.53;6.82;;;;;;;23.16;53.22;99367.94;3600493;40;20039;-65
2021/06/09 09:08:59;;;;;;;10.30;7.43;;;;;;;23.26;52.82;99375.28;3599875;40;20064;-66
2021/06/09 09:11:27;;;;;;;9.20;8.02;;;;;;;23.26;53.04;99367.19;3599695;40;20071;-66
2021/06/09 09:13:54;;;;;;;7.38;6.68;;;;;;;23.39;52.88;99376.69;3599647;40;20063;-66
2021/06/09 09:16:21;;;;;;;7.72;7.03;;;;;;;23.40;52.55;99372.94;3599407;40;20048;-66
2021/06/09 09:18:57;;;;;;;9.13;7.95;;;;;;;23.51;50.96;99365.66;3599317;40;20059;-67
2021/06/09 09:21:38;;;;;;;7.13;6.55;;;;;;;23.49;51.36;99371.34;3599585;40;20313;-66
2021/06/09 09:24:09;;;;;;;8.63;7.70;;;;;;;23.62;51.78;99368.16;3602180;40;20055;-68
2021/06/09 09:26:38;;;;;;;7.38;6.78;;;;;;;23.75;51.66;99366.06;3604634;40;20056;-66
2021/06/09 09:29:14;;;;;;;8.90;6.80;;;;;;;23.80;51.50;99363.38;3595919;40;20048;-67
2021/06/09 09:31:49;;;;;;;7.35;6.63;;;;;;;23.75;51.77;99366.88;3604478;39;20044;-65
2021/06/09 09:34:34;;;;;;;8.18;6.57;;;;;;;23.87;51.76;99362.06;3605495;40;20044;-67
2021/06/09 09:37:20;;;;;;;7.85;7.18;;;;;;;23.97;50.80;99361.28;3603418;40;20055;-66
2021/06/09 09:39:51;;;;;;;8.50;7.00;;;;;;;23.90;50.37;99363.41;3599663;40;20437;-66
2021/06/09 09:42:26;;;;;;;7.22;6.60;;;;;;;23.83;50.49;99363.66;3599502;40;20040;-67
2021/06/09 09:44:53;;;;;;;7.15;6.45;;;;;;;23.80;50.07;99357.97;3600104;40;20059;-66
2021/06/09 09:47:24;;;;;;;6.82;6.22;;;;;;;23.88;49.41;99362.84;3601435;40;20055;-67
2021/06/09 09:49:51;;;;;;;9.32;7.05;;;;;;;23.90;49.36;99363.41;3591740;40;20052;-66
2021/06/09 09:52:19;;;;;;;6.72;6.13;;;;;;;23.91;49.36;99368.53;3600889;40;20032;-66
2021/06/09 09:55:07;;;;;;;6.78;6.28;;;;;;;24.09;48.73;99367.25;3601722;40;20040;-67
2021/06/09 09:57:36;;;;;;;7.20;6.38;;;;;;;23.97;48.63;99361.28;3603412;40;20056;-66
2021/06/09 10:00:06;;;;;;;7.50;6.22;;;;;;;23.92;47.35;99363.94;3603820;40;20063;-66
2021/06/09 10:02:34;;;;;;;6.55;5.95;;;;;;;23.97;47.05;99361.28;3600935;40;20424;-66
2021/06/09 10:05:10;;;;;;;10.23;6.60;;;;;;;24.11;47.62;99364.28;3600970;40;20086;-66
2021/06/09 10:07:37;;;;;;;6.70;5.93;;;;;;;24.14;47.26;99352.94;3593118;40;20306;-66
2021/06/09 10:10:07;;;;;;;7.18;6.20;;;;;;;24.10;46.74;99360.75;3604184;40;20016;-67
2021/06/09 10:12:35;;;;;;;6.82;6.22;;;;;;;24.21;46.89;99357.00;3604882;40;20055;-64
2021/06/09 10:15:03;;;;;;;6.45;5.85;;;;;;;24.17;45.78;99357.81;3602350;40;20052;-66
2021/06/09 10:17:33;;;;;;;6.80;6.15;;;;;;;24.22;46.04;99358.63;3601990;40;20036;-66
2021/06/09 10:20:05;;;;;;;7.20;5.78;;;;;;;24.23;46.36;99362.13;3605245;40;20036;-66
2021/06/09 10:22:35;;;;;;;5.70;5.20;;;;;;;24.31;44.97;99363.50;3605112;40;20076;-66
2021/06/09 10:25:06;;;;;;;5.85;5.25;;;;;;;24.39;44.69;99357.56;3605282;40;20059;-68
2021/06/09 10:27:37;;;;;;;5.15;4.72;;;;;;;24.48;44.11;99355.16;3601816;40;20052;-66
2021/06/09 10:30:22;;;;;;;5.55;5.05;;;;;;;24.56;43.63;99362.72;3590675;40;20040;-66
2021/06/09 10:32:52;;;;;;;5.35;4.82;;;;;;;24.65;42.67;99372.69;3599905;40;20063;-67
2021/06/09 10:35:25;;;;;;;7.10;5.18;;;;;;;24.66;41.07;99365.44;3599123;40;20141;-67
2021/06/09 10:37:53;;;;;;;4.93;4.53;;;;;;;24.70;41.34;99361.09;3598819;40;20397;-65
2021/06/09 10:40:26;;;;;;;5.28;4.68;;;;;;;24.93;41.20;99352.38;3590232;40;20369;-67
2021/06/09 10:42:57;;;;;;;4.50;4.10;;;;;;;25.02;42.10;99352.63;3598299;39;20282;-67
2021/06/09 10:45:25;;;;;;;4.82;4.38;;;;;;;25.16;41.85;99353.72;3599003;40;20048;-67
2021/06/09 10:47:55;;;;;;;5.00;4.55;;;;;;;25.26;41.93;99350.16;3598962;40;20043;-67
2021/06/09 10:50:24;;;;;;;5.55;5.00;;;;;;;25.24;41.55;99352.34;3599231;40;20055;-67
2021/06/09 10:52:51;;;;;;;5.55;5.13;;;;;;;25.18;41.42;99358.84;3599209;40;20047;-68
2021/06/09 10:55:19;;;;;;;5.80;4.78;;;;;;;25.17;41.15;99346.41;3599166;40;20043;-67
2021/06/09 10:57:49;;;;;;;6.18;4.80;;;;;;;25.10;41.57;99345.91;3599079;40;20168;-68
2021/06/09 11:00:20;;;;;;;4.55;4.25;;;;;;;25.13;41.81;99340.75;3599684;40;20048;-66
2021/06/09 11:02:48;;;;;;;4.70;4.30;;;;;;;25.18;41.24;99342.63;3599456;40;20084;-67
2021/06/09 11:05:17;;;;;;;4.80;4.30;;;;;;;25.15;41.00;99335.09;3599760;40;20052;-66
2021/06/09 11:07:46;;;;;;;4.78;4.32;;;;;;;25.17;41.32;99332.91;3589815;40;20393;-66
2021/06/09 11:10:15;;;;;;;4.97;4.43;;;;;;;25.21;39.87;99342.09;3599046;40;20044;-67
2021/06/09 11:12:43;;;;;;;4.13;3.72;;;;;;;25.23;39.24;99331.81;3599057;40;20377;-66
2021/06/09 11:15:13;;;;;;;4.13;3.75;;;;;;;25.38;38.22;99336.34;3599059;40;20068;-67
2021/06/09 11:17:45;;;;;;;3.40;3.17;;;;;;;25.48;38.06;99343.63;3598922;40;20051;-66
2021/06/09 11:20:21;;;;;;;4.47;4.07;;;;;;;25.58;39.12;99338.94;3598639;40;20075;-67
2021/06/09 11:23:01;;;;;;;4.97;4.57;;;;;;;25.65;38.45;99331.34;3590334;40;20320;-66
2021/06/09 11:25:30;;;;;;;4.18;3.88;;;;;;;25.58;39.52;99325.41;3599723;40;20377;-68
2021/06/09 11:28:01;;;;;;;5.03;3.72;;;;;;;25.78;38.99;99331.84;3598686;40;20046;-67
2021/06/09 11:30:53;;;;;;;4.15;3.80;;;;;;;25.88;37.56;99337.19;3581110;40;20044;-68
2021/06/09 11:33:54;;;;;;;7.13;5.30;;;;;;;25.83;39.17;99321.78;3587740;40;20047;-67
2021/06/09 11:36:40;;;;;;;6.05;4.80;;;;;;;25.88;39.82;99329.06;3599319;40;20059;-67